createdAt,value
2023-04-19T00:00:08.172Z,102732.16
2023-04-19T00:02:54.285Z,102725.16
2023-04-19T00:05:41.035Z,102719.94
2023-04-19T00:08:26.644Z,102723.44
2023-04-19T00:11:12.128Z,102719.06
2023-04-19T00:13:57.657Z,102720.84
2023-04-19T00:16:43.045Z,102710.38
2023-04-19T00:19:28.858Z,102713.88
2023-04-19T00:22:14.285Z,102711.25
2023-04-19T00:25:00.211Z,102703.41
2023-04-19T00:27:45.702Z,102701.66
2023-04-19T00:30:31.290Z,102700.81
2023-04-19T00:33:16.824Z,102699.06
2023-04-19T00:36:02.919Z,102700.81
2023-04-19T00:38:48.561Z,102699.06
2023-04-19T00:41:33.729Z,102695.59
2023-04-19T00:44:19.497Z,102689.50
2023-04-19T00:47:05.416Z,102690.34
2023-04-19T00:49:51.152Z,102693.81
2023-04-19T00:52:36.909Z,102697.31
2023-04-19T00:55:23.704Z,102689.44
2023-04-19T00:58:09.715Z,102704.19
2023-04-19T01:00:55.327Z,102697.19
2023-04-19T01:03:41.060Z,102700.66
2023-04-19T01:06:30.138Z,102698.03
2023-04-19T01:09:15.648Z,102698.88
2023-04-19T01:12:02.229Z,102698.88
2023-04-19T01:14:47.577Z,102698.00
2023-04-19T01:17:33.261Z,102695.38
2023-04-19T01:20:18.850Z,102694.47
2023-04-19T01:23:04.547Z,102699.69
2023-04-19T01:25:50.144Z,102702.28
2023-04-19T01:28:36.015Z,102701.41
2023-04-19T01:31:21.617Z,102699.69
2023-04-19T01:34:07.231Z,102704.88
2023-04-19T01:36:52.828Z,102703.13
2023-04-19T01:39:38.252Z,102699.66
2023-04-19T01:42:23.623Z,102697.06
2023-04-19T01:45:09.544Z,102692.69
2023-04-19T01:47:55.986Z,102703.06
2023-04-19T01:50:41.864Z,102694.44
2023-04-19T01:53:27.427Z,102700.47
2023-04-19T01:56:13.031Z,102696.06
2023-04-19T01:58:58.548Z,102703.88
2023-04-19T02:06:41.899Z,102696.88
2023-04-19T02:09:27.325Z,102689.09
2023-04-19T02:12:12.876Z,102696.84
2023-04-19T02:14:59.535Z,102693.41
2023-04-19T02:17:47.008Z,102693.41
2023-04-19T02:20:32.503Z,102692.59
2023-04-19T02:23:17.899Z,102684.72
2023-04-19T02:26:03.684Z,102691.72
2023-04-19T02:28:51.430Z,102683.00
2023-04-19T02:31:36.896Z,102695.13
2023-04-19T02:34:22.208Z,102686.44
2023-04-19T02:37:07.602Z,102686.41
2023-04-19T02:39:53.603Z,102682.97
2023-04-19T02:42:39.267Z,102690.72
2023-04-19T02:45:25.839Z,102681.19
2023-04-19T02:48:11.260Z,102680.28
2023-04-19T02:50:56.781Z,102688.06
2023-04-19T02:53:42.708Z,102689.75
2023-04-19T02:56:29.951Z,102684.56
2023-04-19T02:59:15.617Z,102683.72
2023-04-19T03:02:03.963Z,102674.13
2023-04-19T03:04:49.350Z,102678.44
2023-04-19T03:07:34.737Z,102667.22
2023-04-19T03:10:20.548Z,102667.16
2023-04-19T03:13:05.833Z,102665.44
2023-04-19T03:15:51.651Z,102660.16
2023-04-19T03:18:37.206Z,102663.66
2023-04-19T03:21:26.990Z,102655.91
2023-04-19T03:24:12.869Z,102654.25
2023-04-19T03:26:58.695Z,102649.84
2023-04-19T03:29:44.344Z,102642.94
2023-04-19T03:32:29.905Z,102637.72
2023-04-19T03:35:15.677Z,102637.69
2023-04-19T03:38:01.226Z,102644.69
2023-04-19T03:40:47.040Z,102635.09
2023-04-19T03:43:32.711Z,102642.00
2023-04-19T03:46:18.481Z,102634.16
2023-04-19T03:49:03.873Z,102646.28
2023-04-19T03:51:49.670Z,102641.91
2023-04-19T03:54:35.160Z,102634.16
2023-04-19T03:57:20.964Z,102641.88
2023-04-19T04:00:09.558Z,102634.91
2023-04-19T04:02:55.088Z,102635.78
2023-04-19T04:05:40.901Z,102637.41
2023-04-19T04:08:26.460Z,102637.47
2023-04-19T04:11:12.022Z,102629.66
2023-04-19T04:13:57.767Z,102634.03
2023-04-19T04:16:43.425Z,102628.00
2023-04-19T04:19:29.004Z,102621.06
2023-04-19T04:22:14.271Z,102615.91
2023-04-19T04:25:01.315Z,102617.63
2023-04-19T04:27:47.599Z,102628.06
2023-04-19T04:30:34.250Z,102628.06
2023-04-19T04:33:19.861Z,102628.13
2023-04-19T04:36:07.176Z,102622.16
2023-04-19T04:38:54.246Z,102622.25
2023-04-19T04:41:42.038Z,102624.91
2023-04-19T04:47:13.610Z,102623.19
2023-04-19T04:49:59.924Z,102624.09
2023-04-19T04:52:45.329Z,102610.25
2023-04-19T04:55:30.706Z,102618.13
2023-04-19T04:58:16.875Z,102624.19
2023-04-19T05:01:04.048Z,102615.59
2023-04-19T05:03:50.561Z,102615.63
2023-04-19T05:06:36.262Z,102609.53
2023-04-19T05:09:22.036Z,102618.25
2023-04-19T05:12:07.681Z,102614.78
2023-04-19T05:14:53.516Z,102606.16
2023-04-19T05:17:39.078Z,102613.97
2023-04-19T05:20:25.909Z,102625.28
2023-04-19T05:23:11.473Z,102620.97
2023-04-19T05:25:56.711Z,102621.84
2023-04-19T05:28:43.494Z,102622.69
2023-04-19T05:31:29.352Z,102614.88
2023-04-19T05:34:15.033Z,102609.69
2023-04-19T05:37:00.822Z,102611.41
2023-04-19T05:39:46.121Z,102609.69
2023-04-19T05:42:31.983Z,102614.00
2023-04-19T05:45:18.883Z,102605.22
2023-04-19T05:48:04.996Z,102608.16
2023-04-19T05:50:52.354Z,102603.28
2023-04-19T05:53:37.988Z,102599.28
2023-04-19T05:56:23.607Z,102583.84
2023-04-19T05:59:11.338Z,102598.28
2023-04-19T06:01:57.079Z,102593.19
2023-04-19T06:04:43.539Z,102596.41
2023-04-19T06:07:34.102Z,102584.22
2023-04-19T06:10:19.705Z,102582.41
2023-04-19T06:13:05.670Z,102589.41
2023-04-19T06:15:51.300Z,102576.41
2023-04-19T06:18:37.057Z,102580.78
2023-04-19T06:21:22.232Z,102571.03
2023-04-19T06:24:07.876Z,102564.63
2023-04-19T06:26:53.351Z,102564.19
2023-04-19T06:29:38.728Z,102567.72
2023-04-19T06:32:25.844Z,102565.63
2023-04-19T06:35:11.377Z,102574.22
2023-04-19T06:37:56.792Z,102564.72
2023-04-19T06:40:42.096Z,102567.19
2023-04-19T06:43:27.420Z,102568.84
2023-04-19T06:46:14.400Z,102562.16
2023-04-19T06:48:59.907Z,102561.81
2023-04-19T06:51:45.520Z,102567.00
2023-04-19T06:54:31.045Z,102547.47
2023-04-19T06:57:17.494Z,102550.03
2023-04-19T07:00:05.286Z,102553.78
2023-04-19T07:02:51.024Z,102545.25
2023-04-19T07:05:36.422Z,102546.94
2023-04-19T07:08:24.984Z,102552.03
2023-04-19T07:11:11.910Z,102538.56
2023-04-19T07:13:58.128Z,102538.56
2023-04-19T07:16:43.716Z,102537.69
2023-04-19T07:19:29.170Z,102533.34
2023-04-19T07:22:15.308Z,102523.41
2023-04-19T07:25:00.746Z,102531.16
2023-04-19T07:27:47.210Z,102530.38
2023-04-19T07:30:33.535Z,102512.84
2023-04-19T07:33:19.050Z,102512.16
2023-04-19T07:36:04.407Z,102519.75
2023-04-19T07:38:49.906Z,102514.03
2023-04-19T07:41:36.303Z,102491.53
2023-04-19T07:44:22.490Z,102500.13
2023-04-19T07:47:07.746Z,102486.28
2023-04-19T07:49:53.549Z,102490.84
2023-04-19T07:52:39.601Z,102490.44
2023-04-19T07:55:24.983Z,102485.63
2023-04-19T07:58:12.115Z,102471.41
2023-04-19T08:00:57.446Z,102488.84
2023-04-19T08:03:42.844Z,102483.84
2023-04-19T08:06:30.486Z,102480.25
2023-04-19T08:09:16.032Z,102467.75
2023-04-19T08:12:01.385Z,102471.13
2023-04-19T08:14:59.419Z,102471.00
2023-04-19T08:17:50.750Z,102471.44
2023-04-19T08:20:36.697Z,102457.59
2023-04-19T08:23:25.986Z,102453.50
2023-04-19T08:26:14.923Z,102454.84
2023-04-19T08:29:00.552Z,102463.16
2023-04-19T08:31:46.452Z,102465.16
2023-04-19T08:34:34.471Z,102462.44
2023-04-19T08:37:20.076Z,102463.16
2023-04-19T08:40:06.400Z,102457.81
2023-04-19T08:42:51.936Z,102464.66
2023-04-19T08:45:38.306Z,102453.94
2023-04-19T08:48:24.722Z,102464.19
2023-04-19T08:51:12.550Z,102459.59
2023-04-19T08:53:59.381Z,102444.69
2023-04-19T08:56:44.830Z,102454.97
2023-04-19T08:59:32.762Z,102442.38
2023-04-19T09:02:18.256Z,102457.09
2023-04-19T09:05:03.996Z,102451.25
2023-04-19T09:07:50.020Z,102443.06
2023-04-19T09:10:35.347Z,102435.38
2023-04-19T09:13:20.614Z,102435.03
2023-04-19T09:16:07.904Z,102411.22
2023-04-19T09:19:02.497Z,102422.06
2023-04-19T09:21:57.308Z,102429.44
2023-04-19T09:27:33.390Z,102406.00
2023-04-19T09:30:32.533Z,102411.16
2023-04-19T09:33:42.074Z,102408.22
2023-04-19T09:36:30.659Z,102386.88
2023-04-19T09:39:32.638Z,102389.47
2023-04-19T09:42:32.831Z,102389.53
2023-04-19T09:45:30.494Z,102374.19
2023-04-19T09:48:16.903Z,102387.28
2023-04-19T09:51:07.449Z,102371.50
2023-04-19T09:53:55.959Z,102371.63
2023-04-19T09:56:41.608Z,102377.88
2023-04-19T09:59:26.916Z,102368.50
2023-04-19T10:02:14.355Z,102360.50
2023-04-19T10:05:16.235Z,102349.69
2023-04-19T10:08:07.788Z,102348.84
2023-04-19T10:10:55.286Z,102349.72
2023-04-19T10:13:41.431Z,102350.28
2023-04-19T10:16:27.388Z,102332.06
2023-04-19T10:19:16.093Z,102329.75
2023-04-19T10:22:05.304Z,102329.63
2023-04-19T10:25:13.460Z,102321.78
2023-04-19T10:27:59.083Z,102318.34
2023-04-19T10:31:01.766Z,102311.56
2023-04-19T10:33:47.820Z,102295.06
2023-04-19T10:36:33.652Z,102299.63
2023-04-19T10:39:41.261Z,102304.13
2023-04-19T10:43:09.666Z,102294.28
2023-04-19T10:45:59.081Z,102292.97
2023-04-19T10:48:54.851Z,102278.31
2023-04-19T10:51:47.334Z,102269.31
2023-04-19T10:54:35.692Z,102265.50
2023-04-19T10:57:21.067Z,102276.66
2023-04-19T11:00:22.599Z,102274.56
2023-04-19T11:03:45.025Z,102263.88
2023-04-19T11:06:31.474Z,102249.41
2023-04-19T11:09:28.577Z,102259.38
2023-04-19T11:12:18.929Z,102240.28
2023-04-19T11:15:09.317Z,102239.22
2023-04-19T11:18:08.960Z,102259.38
2023-04-19T11:20:57.891Z,102241.78
2023-04-19T11:23:43.506Z,102246.28
2023-04-19T11:26:29.078Z,102246.66
2023-04-19T11:29:15.344Z,102237.94
2023-04-19T11:32:00.861Z,102245.44
2023-04-19T11:34:46.542Z,102245.63
2023-04-19T11:37:36.480Z,102218.75
2023-04-19T11:40:23.280Z,102236.19
2023-04-19T11:43:08.944Z,102239.44
2023-04-19T11:45:55.586Z,102230.72
2023-04-19T11:48:54.516Z,102214.31
2023-04-19T11:51:43.370Z,102217.59
2023-04-19T11:54:28.750Z,102197.41
2023-04-19T11:57:14.136Z,102209.69
2023-04-19T12:00:07.234Z,102211.03
2023-04-19T12:02:53.687Z,102210.75
2023-04-19T12:05:39.206Z,102222.91
2023-04-19T12:08:32.509Z,102222.22
2023-04-19T12:11:21.481Z,102197.81
2023-04-19T12:14:13.353Z,102198.13
2023-04-19T12:17:12.055Z,102209.25
2023-04-19T12:19:57.335Z,102233.66
2023-04-19T12:22:43.616Z,102216.69
2023-04-19T12:25:33.291Z,102221.38
2023-04-19T12:28:18.895Z,102209.72
2023-04-19T12:31:04.749Z,102192.03
2023-04-19T12:33:50.596Z,102190.72
2023-04-19T12:36:36.087Z,102194.16
2023-04-19T12:39:21.664Z,102204.94
2023-04-19T12:42:06.988Z,102198.31
2023-04-19T12:44:52.378Z,102182.88
2023-04-19T12:47:37.783Z,102177.84
2023-04-19T12:50:23.137Z,102181.84
2023-04-19T12:53:09.362Z,102176.38
2023-04-19T12:55:55.066Z,102162.72
2023-04-19T12:58:40.616Z,102158.53
2023-04-19T13:01:25.874Z,102157.88
2023-04-19T13:04:12.099Z,102155.56
2023-04-19T13:06:58.020Z,102170.03
2023-04-19T13:09:43.667Z,102158.75
2023-04-19T13:12:29.280Z,102153.50
2023-04-19T13:15:14.515Z,102142.09
2023-04-19T13:18:00.211Z,102154.06
2023-04-19T13:20:46.300Z,102154.97
2023-04-19T13:23:31.809Z,102129.28
2023-04-19T13:26:17.413Z,102110.16
2023-04-19T13:29:02.856Z,102132.25
2023-04-19T13:31:49.371Z,102158.75
2023-04-19T13:34:36.415Z,102149.31
2023-04-19T13:37:21.960Z,102143.09
2023-04-19T13:40:18.741Z,102120.19
2023-04-19T13:43:05.101Z,102122.09
2023-04-19T13:45:50.729Z,102132.16
2023-04-19T13:48:35.930Z,102122.19
2023-04-19T13:51:21.614Z,102113.03
2023-04-19T13:54:06.948Z,102126.84
2023-04-19T13:56:52.654Z,102102.63
2023-04-19T13:59:38.195Z,102129.28
2023-04-19T14:02:23.578Z,102125.25
2023-04-19T14:05:09.479Z,102114.00
2023-04-19T14:07:55.295Z,102114.47
2023-04-19T14:10:41.398Z,102103.81
2023-04-19T14:13:26.830Z,102104.56
2023-04-19T14:16:12.139Z,102111.44
2023-04-19T14:18:57.826Z,102107.34
2023-04-19T14:21:43.522Z,102098.38
2023-04-19T14:24:29.265Z,102099.44
2023-04-19T14:27:14.521Z,102104.78
2023-04-19T14:30:00.131Z,102114.16
2023-04-19T14:32:45.699Z,102095.53
2023-04-19T14:35:31.454Z,102100.16
2023-04-19T14:38:16.996Z,102089.38
2023-04-19T14:41:03.364Z,102069.25
2023-04-19T14:43:49.190Z,102095.19
2023-04-19T14:46:34.629Z,102074.72
2023-04-19T14:49:20.075Z,102081.03
2023-04-19T14:52:05.596Z,102082.63
2023-04-19T14:54:51.366Z,102078.81
2023-04-19T14:57:36.933Z,102082.50
2023-04-19T15:00:22.212Z,102072.22
2023-04-19T15:03:08.053Z,102072.31
2023-04-19T15:05:53.611Z,102068.66
2023-04-19T15:08:40.307Z,102063.78
2023-04-19T15:11:25.714Z,102075.19
2023-04-19T15:14:11.326Z,102069.34
2023-04-19T15:16:57.056Z,102058.41
2023-04-19T15:19:42.526Z,102064.72
2023-04-19T15:22:28.096Z,102067.72
2023-04-19T15:25:13.848Z,102060.44
2023-04-19T15:27:59.161Z,102061.22
2023-04-19T15:30:44.578Z,102062.19
2023-04-19T15:33:30.436Z,102054.63
2023-04-19T15:36:16.201Z,102047.44
2023-04-19T15:39:01.882Z,102051.16
2023-04-19T15:41:47.629Z,102064.09
2023-04-19T15:44:33.111Z,102059.81
2023-04-19T15:47:18.634Z,102056.50
2023-04-19T15:50:04.536Z,102050.47
2023-04-19T15:52:49.956Z,102039.69
2023-04-19T15:55:35.888Z,102055.81
2023-04-19T15:58:21.576Z,102051.19
2023-04-19T16:01:10.965Z,102049.31
2023-04-19T16:03:56.805Z,102063.66
2023-04-19T16:06:42.327Z,102051.94
2023-04-19T16:09:27.785Z,102059.34
2023-04-19T16:12:13.269Z,102050.50
2023-04-19T16:14:58.854Z,102050.00
2023-04-19T16:17:44.372Z,102062.19
2023-04-19T16:20:29.993Z,102064.06
2023-04-19T16:23:16.205Z,102055.94
2023-04-19T16:26:01.513Z,102057.47
2023-04-19T16:28:47.274Z,102069.31
2023-04-19T16:31:32.657Z,102074.88
2023-04-19T16:34:19.825Z,102070.03
2023-04-19T16:37:05.239Z,102055.94
2023-04-19T16:39:51.166Z,102067.97
2023-04-19T16:42:38.137Z,102069.41
2023-04-19T16:45:23.993Z,102067.72
2023-04-19T16:48:09.292Z,102071.38
2023-04-19T16:50:55.014Z,102057.50
2023-04-19T16:53:40.420Z,102084.00
2023-04-19T16:56:25.835Z,102076.91
2023-04-19T16:59:11.328Z,102083.47
2023-04-19T17:02:00.436Z,102072.03
2023-04-19T17:04:47.945Z,102078.00
2023-04-19T17:07:33.324Z,102073.28
2023-04-19T17:10:18.945Z,102066.84
2023-04-19T17:13:04.277Z,102071.53
2023-04-19T17:15:50.264Z,102078.03
2023-04-19T17:18:35.575Z,102088.50
2023-04-19T17:21:21.238Z,102080.34
2023-04-19T17:24:06.605Z,102084.44
2023-04-19T17:26:52.035Z,102082.38
2023-04-19T17:29:37.733Z,102082.31
2023-04-19T17:32:23.205Z,102088.38
2023-04-19T17:35:08.805Z,102090.19
2023-04-19T17:37:54.210Z,102085.13
2023-04-19T17:40:39.608Z,102099.22
2023-04-19T17:43:27.671Z,102100.31
2023-04-19T17:46:13.979Z,102097.94
2023-04-19T17:48:59.725Z,102092.13
2023-04-19T17:51:45.880Z,102106.47
2023-04-19T17:54:31.407Z,102108.22
2023-04-19T17:57:16.825Z,102102.16
2023-04-19T18:00:06.459Z,102106.56
2023-04-19T18:02:51.912Z,102092.69
2023-04-19T18:05:40.885Z,102106.75
2023-04-19T18:08:26.466Z,102110.47
2023-04-19T18:11:12.002Z,102100.00
2023-04-19T18:13:57.396Z,102088.88
2023-04-19T18:16:42.947Z,102117.19
2023-04-19T18:19:28.490Z,102115.75
2023-04-19T18:22:13.713Z,102121.34
2023-04-19T18:24:59.307Z,102125.94
2023-04-19T18:27:44.928Z,102104.19
2023-04-19T18:30:30.761Z,102100.00
2023-04-19T18:33:16.240Z,102097.19
2023-04-19T18:36:01.824Z,102103.53
2023-04-19T18:38:47.175Z,102086.66
2023-04-19T18:41:32.955Z,102077.75
2023-04-19T18:47:06.644Z,102058.34
2023-04-19T18:50:04.604Z,102061.78
2023-04-19T18:52:50.845Z,102037.41
2023-04-19T18:55:36.178Z,102031.22
2023-04-19T18:58:22.574Z,102019.94
2023-04-19T19:01:08.323Z,102023.16
2023-04-19T19:04:10.680Z,102017.19
2023-04-19T19:07:07.809Z,102012.69
2023-04-19T19:10:03.572Z,102006.47
2023-04-19T19:12:55.146Z,101995.97
2023-04-19T19:15:41.429Z,101989.84
2023-04-19T19:18:29.384Z,101989.03
2023-04-19T19:21:14.961Z,101993.38
2023-04-19T19:24:00.170Z,101999.44
2023-04-19T19:26:45.516Z,101988.22
2023-04-19T19:29:30.994Z,101986.53
2023-04-19T19:32:16.177Z,101988.13
2023-04-19T19:35:06.346Z,101980.41
2023-04-19T19:37:53.223Z,101969.09
2023-04-19T19:40:59.359Z,101979.38
2023-04-19T19:43:45.119Z,101955.06
2023-04-19T19:46:31.200Z,101965.00
2023-04-19T19:49:18.603Z,101969.00
2023-04-19T19:52:04.766Z,101974.56
2023-04-19T19:54:50.183Z,101982.25
2023-04-19T20:00:44.002Z,101978.00
2023-04-19T20:03:37.465Z,101973.81
2023-04-19T20:09:11.607Z,101982.66
2023-04-19T20:11:56.962Z,101985.38
2023-04-19T20:14:42.489Z,101969.94
2023-04-19T20:17:28.058Z,101990.16
2023-04-19T20:20:14.629Z,101996.44
2023-04-19T20:23:00.190Z,102007.00
2023-04-19T20:25:46.566Z,101997.41
2023-04-19T20:28:31.920Z,101994.06
2023-04-19T20:31:17.212Z,101996.91
2023-04-19T20:34:02.671Z,101984.91
2023-04-19T20:36:48.138Z,101994.41
2023-04-19T20:39:33.849Z,101995.53
2023-04-19T20:42:19.471Z,101989.38
2023-04-19T20:45:09.712Z,101988.75
2023-04-19T20:47:55.613Z,101984.47
2023-04-19T20:50:41.411Z,101982.81
2023-04-19T20:53:27.069Z,101985.69
2023-04-19T20:56:12.432Z,101986.53
2023-04-19T20:58:58.086Z,101982.25
2023-04-19T21:01:43.673Z,101981.47
2023-04-19T21:04:29.482Z,101984.28
2023-04-19T21:07:15.345Z,101986.94
2023-04-19T21:10:00.796Z,101981.03
2023-04-19T21:12:46.300Z,101977.63
2023-04-19T21:15:31.718Z,101976.75
2023-04-19T21:18:17.786Z,101977.56
2023-04-19T21:21:03.450Z,101977.72
2023-04-19T21:23:48.699Z,101987.44
2023-04-19T21:26:34.164Z,101967.44
2023-04-19T21:29:20.115Z,101973.59
2023-04-19T21:32:05.498Z,101974.41
2023-04-19T21:34:50.987Z,101947.41
2023-04-19T21:37:37.499Z,101968.47
2023-04-19T21:40:23.046Z,101955.34
2023-04-19T21:43:08.314Z,101957.16
2023-04-19T21:45:53.903Z,101931.91
2023-04-19T21:48:39.470Z,101946.69
2023-04-19T21:51:25.201Z,101943.28
2023-04-19T21:54:14.070Z,101949.28
2023-04-19T21:57:03.789Z,101953.78
2023-04-19T21:59:49.007Z,101939.88
2023-04-19T22:02:34.347Z,101935.59
2023-04-19T22:05:19.744Z,101942.38
2023-04-19T22:08:05.493Z,101932.19
2023-04-19T22:10:51.135Z,101944.38
2023-04-19T22:13:37.364Z,101952.97
2023-04-19T22:16:22.717Z,101954.84
2023-04-19T22:19:08.379Z,101950.78
2023-04-19T22:21:55.013Z,101942.63
2023-04-19T22:24:53.903Z,101951.69
2023-04-19T22:27:43.351Z,101969.63
2023-04-19T22:30:28.907Z,101953.81
2023-04-19T22:33:14.431Z,101967.97
2023-04-19T22:35:59.865Z,101972.00
2023-04-19T22:38:45.263Z,101978.25
2023-04-19T22:41:32.273Z,101996.56
2023-04-19T22:44:18.016Z,101981.09
2023-04-19T22:47:03.517Z,101974.97
2023-04-19T22:49:49.525Z,101968.84
2023-04-19T22:52:35.230Z,101959.28
2023-04-19T22:55:20.704Z,101945.44
2023-04-19T22:58:06.605Z,101943.69
2023-04-19T23:00:52.415Z,101947.13
2023-04-19T23:03:37.948Z,101940.97
2023-04-19T23:06:23.473Z,101942.66
2023-04-19T23:09:10.883Z,101945.28
2023-04-19T23:11:58.526Z,101937.38
2023-04-19T23:14:43.876Z,101933.06
2023-04-19T23:17:29.242Z,101924.50
2023-04-19T23:20:15.133Z,101928.72
2023-04-19T23:23:00.639Z,101926.06
2023-04-19T23:25:46.166Z,101932.97
2023-04-19T23:28:31.676Z,101929.44
2023-04-19T23:31:16.962Z,101919.19
2023-04-19T23:34:02.985Z,101917.41
2023-04-19T23:36:48.295Z,101920.13
2023-04-19T23:39:33.699Z,101920.13
2023-04-19T23:42:19.063Z,101922.78
2023-04-19T23:45:05.431Z,101909.72
2023-04-19T23:47:50.842Z,101904.41
2023-04-19T23:50:36.391Z,101908.06
2023-04-19T23:53:22.261Z,101905.47
2023-04-19T23:56:08.006Z,101905.50
2023-04-19T23:58:53.402Z,101901.31
